createdAt,value
2023-11-06T00:01:40.490Z,8.05
2023-11-06T00:04:07.950Z,8.33
2023-11-06T00:06:35.124Z,8.23
2023-11-06T00:09:05.506Z,8.28
2023-11-06T00:11:33.151Z,8.30
2023-11-06T00:14:00.863Z,8.05
2023-11-06T00:16:29.761Z,8.09
2023-11-06T00:18:57.286Z,8.39
2023-11-06T00:21:27.909Z,8.33
2023-11-06T00:23:57.076Z,8.40
2023-11-06T00:26:24.528Z,8.39
2023-11-06T00:28:55.894Z,8.47
2023-11-06T00:31:24.118Z,8.29
2023-11-06T00:33:52.882Z,8.58
2023-11-06T00:36:21.536Z,8.61
2023-11-06T00:38:49.857Z,8.41
2023-11-06T00:41:17.626Z,8.55
2023-11-06T00:43:44.904Z,8.24
2023-11-06T00:46:12.479Z,8.86
2023-11-06T00:48:41.147Z,8.76
2023-11-06T00:51:08.762Z,8.84
2023-11-06T00:53:36.239Z,8.89
2023-11-06T00:56:04.500Z,8.98
2023-11-06T00:58:32.088Z,8.96
2023-11-06T01:00:59.505Z,9.00
2023-11-06T01:03:27.013Z,9.09
2023-11-06T01:05:54.642Z,9.13
2023-11-06T01:08:22.648Z,9.13
2023-11-06T01:10:50.282Z,8.98
2023-11-06T01:13:17.834Z,9.22
2023-11-06T01:15:45.421Z,9.27
2023-11-06T01:18:13.161Z,9.28
2023-11-06T01:20:42.255Z,9.22
2023-11-06T01:23:10.166Z,9.27
2023-11-06T01:25:44.196Z,9.35
2023-11-06T01:28:12.841Z,9.37
2023-11-06T01:30:40.977Z,9.42
2023-11-06T01:33:08.596Z,9.51
2023-11-06T01:35:36.588Z,9.46
2023-11-06T01:38:04.120Z,9.57
2023-11-06T01:40:31.883Z,9.63
2023-11-06T01:43:08.829Z,9.61
2023-11-06T01:45:37.735Z,9.63
2023-11-06T01:48:06.555Z,9.70
2023-11-06T01:50:37.084Z,9.70
2023-11-06T01:53:10.649Z,9.38
2023-11-06T01:55:40.478Z,9.71
2023-11-06T01:58:08.128Z,9.77
2023-11-06T02:00:35.438Z,9.76
2023-11-06T02:03:07.118Z,9.68
2023-11-06T02:05:39.361Z,9.85
2023-11-06T02:08:07.217Z,9.91
2023-11-06T02:10:34.785Z,9.84
2023-11-06T02:13:02.779Z,9.84
2023-11-06T02:15:30.504Z,9.88
2023-11-06T02:17:58.472Z,9.94
2023-11-06T02:20:26.175Z,9.79
2023-11-06T02:23:02.748Z,9.98
2023-11-06T02:25:30.168Z,10.05
2023-11-06T02:27:57.776Z,10.03
2023-11-06T02:30:25.570Z,9.82
2023-11-06T02:32:53.187Z,9.98
2023-11-06T02:35:20.476Z,10.16
2023-11-06T02:37:48.035Z,10.15
2023-11-06T02:40:15.507Z,10.15
2023-11-06T02:42:42.703Z,10.28
2023-11-06T02:45:11.272Z,10.31
2023-11-06T02:47:38.839Z,10.41
2023-11-06T02:50:06.960Z,10.19
2023-11-06T02:52:35.345Z,10.45
2023-11-06T02:55:02.850Z,10.49
2023-11-06T02:57:32.007Z,10.51
2023-11-06T02:59:59.548Z,10.44
2023-11-06T03:02:26.840Z,10.59
2023-11-06T03:04:54.446Z,10.58
2023-11-06T03:07:22.134Z,10.58
2023-11-06T03:09:49.723Z,10.45
2023-11-06T03:12:17.159Z,10.48
2023-11-06T03:14:44.832Z,10.45
2023-11-06T03:17:12.902Z,10.47
2023-11-06T03:19:40.277Z,10.42
2023-11-06T03:22:08.287Z,10.38
2023-11-06T03:24:35.615Z,10.38
2023-11-06T03:27:03.109Z,10.11
2023-11-06T03:29:30.646Z,10.29
2023-11-06T03:31:58.411Z,10.27
2023-11-06T03:34:25.991Z,10.23
2023-11-06T03:36:53.565Z,10.23
2023-11-06T03:39:21.245Z,10.24
2023-11-06T03:41:48.956Z,9.97
2023-11-06T03:44:16.833Z,10.12
2023-11-06T03:46:44.508Z,10.14
2023-11-06T03:49:12.346Z,10.10
2023-11-06T03:51:40.362Z,10.05
2023-11-06T03:54:07.724Z,9.84
2023-11-06T03:56:35.090Z,10.04
2023-11-06T03:59:02.926Z,10.04
2023-11-06T04:01:35.556Z,9.72
2023-11-06T04:04:04.027Z,9.89
2023-11-06T04:06:32.541Z,9.80
2023-11-06T04:09:00.040Z,9.64
2023-11-06T04:11:27.796Z,9.73
2023-11-06T04:13:55.215Z,9.72
2023-11-06T04:16:22.670Z,9.76
2023-11-06T04:18:50.767Z,9.68
2023-11-06T04:21:18.496Z,9.64
2023-11-06T04:23:46.130Z,9.56
2023-11-06T04:26:14.170Z,9.57
2023-11-06T04:28:41.757Z,9.56
2023-11-06T04:31:09.732Z,9.53
2023-11-06T04:33:37.379Z,9.50
2023-11-06T04:36:05.329Z,9.53
2023-11-06T04:38:32.644Z,9.48
2023-11-06T04:41:00.322Z,9.54
2023-11-06T04:43:27.953Z,9.57
2023-11-06T04:45:55.712Z,9.53
2023-11-06T04:48:23.162Z,9.54
2023-11-06T04:50:50.882Z,9.54
2023-11-06T04:53:18.197Z,9.52
2023-11-06T04:55:45.801Z,9.50
2023-11-06T04:58:13.113Z,9.39
2023-11-06T05:00:41.688Z,9.42
2023-11-06T05:03:09.507Z,9.40
2023-11-06T05:05:39.182Z,9.38
2023-11-06T05:08:07.291Z,9.41
2023-11-06T05:10:34.985Z,9.41
2023-11-06T05:13:02.511Z,9.50
2023-11-06T05:15:30.094Z,9.51
2023-11-06T05:17:59.149Z,9.33
2023-11-06T05:20:27.916Z,9.32
2023-11-06T05:22:56.661Z,9.36
2023-11-06T05:25:24.206Z,9.35
2023-11-06T05:27:52.787Z,9.04
2023-11-06T05:30:20.334Z,9.35
2023-11-06T05:32:47.962Z,8.84
2023-11-06T05:35:16.209Z,9.38
2023-11-06T05:37:43.908Z,9.20
2023-11-06T05:40:12.143Z,9.40
2023-11-06T05:42:40.310Z,9.38
2023-11-06T05:45:11.041Z,8.86
2023-11-06T05:47:38.991Z,9.43
2023-11-06T05:50:07.796Z,9.43
2023-11-06T05:52:35.369Z,9.45
2023-11-06T05:55:03.752Z,9.51
2023-11-06T05:57:32.582Z,9.57
2023-11-06T06:00:00.296Z,9.63
2023-11-06T06:02:28.856Z,9.68
2023-11-06T06:04:58.712Z,9.61
2023-11-06T06:07:26.183Z,9.86
2023-11-06T06:09:53.879Z,9.60
2023-11-06T06:12:21.131Z,9.66
2023-11-06T06:14:48.364Z,9.88
2023-11-06T06:17:16.988Z,10.01
2023-11-06T06:19:44.442Z,10.03
2023-11-06T06:22:11.804Z,9.81
2023-11-06T06:24:39.541Z,9.97
2023-11-06T06:27:06.936Z,10.16
2023-11-06T06:29:34.273Z,10.35
2023-11-06T06:32:02.153Z,10.36
2023-11-06T06:34:29.534Z,10.42
2023-11-06T06:36:57.283Z,10.48
2023-11-06T06:39:24.800Z,10.43
2023-11-06T06:41:52.517Z,10.42
2023-11-06T06:44:20.075Z,9.91
2023-11-06T06:46:47.613Z,10.36
2023-11-06T06:49:16.390Z,10.32
2023-11-06T06:51:43.712Z,10.31
2023-11-06T06:54:11.431Z,10.42
2023-11-06T06:56:38.834Z,10.38
2023-11-06T06:59:06.062Z,10.28
2023-11-06T07:01:33.661Z,10.39
2023-11-06T07:04:01.105Z,10.46
2023-11-06T07:06:29.031Z,10.21
2023-11-06T07:08:58.602Z,10.15
2023-11-06T07:11:26.123Z,10.43
2023-11-06T07:13:53.682Z,10.34
2023-11-06T07:16:21.390Z,10.42
2023-11-06T07:18:49.356Z,10.24
2023-11-06T07:21:18.690Z,10.02
2023-11-06T07:23:46.443Z,9.51
2023-11-06T07:26:14.241Z,9.88
2023-11-06T07:28:41.645Z,9.86
2023-11-06T07:31:10.072Z,9.90
2023-11-06T07:33:38.038Z,9.75
2023-11-06T07:36:08.240Z,10.06
2023-11-06T07:38:37.018Z,9.83
2023-11-06T07:41:05.007Z,10.10
2023-11-06T07:43:32.377Z,9.91
2023-11-06T07:46:00.055Z,9.51
2023-11-06T07:48:28.551Z,10.00
2023-11-06T07:50:56.351Z,9.82
2023-11-06T07:53:24.364Z,9.97
2023-11-06T07:55:52.167Z,9.95
2023-11-06T07:58:19.566Z,9.94
2023-11-06T08:00:50.637Z,10.13
2023-11-06T08:03:19.097Z,10.09
2023-11-06T08:05:46.680Z,10.10
2023-11-06T08:08:14.762Z,9.95
2023-11-06T08:10:42.295Z,9.91
2023-11-06T08:13:09.735Z,9.90
2023-11-06T08:15:37.222Z,9.90
2023-11-06T08:18:04.833Z,9.86
2023-11-06T08:20:35.206Z,9.77
2023-11-06T08:23:02.941Z,9.66
2023-11-06T08:25:33.278Z,9.60
2023-11-06T08:28:00.986Z,9.22
2023-11-06T08:30:28.804Z,9.46
2023-11-06T08:32:56.498Z,9.27
2023-11-06T08:35:23.956Z,9.53
2023-11-06T08:37:51.376Z,9.19
2023-11-06T08:40:19.025Z,9.68
2023-11-06T08:42:46.741Z,9.64
2023-11-06T08:45:14.494Z,9.33
2023-11-06T08:47:42.240Z,9.70
2023-11-06T08:50:10.505Z,9.73
2023-11-06T08:52:38.244Z,9.72
2023-11-06T08:55:07.300Z,9.75
2023-11-06T08:57:35.553Z,10.05
2023-11-06T09:00:02.962Z,10.24
2023-11-06T09:02:33.003Z,10.37
2023-11-06T09:05:00.642Z,10.48
2023-11-06T09:07:29.113Z,10.53
2023-11-06T09:09:56.524Z,10.42
2023-11-06T09:12:23.916Z,10.68
2023-11-06T09:14:51.436Z,10.71
2023-11-06T09:17:18.944Z,10.75
2023-11-06T09:19:47.504Z,10.63
2023-11-06T09:22:15.834Z,10.55
2023-11-06T09:24:43.603Z,10.68
2023-11-06T09:27:11.082Z,10.91
2023-11-06T09:29:39.135Z,10.64
2023-11-06T09:32:08.503Z,10.72
2023-11-06T09:34:37.624Z,10.95
2023-11-06T09:37:04.966Z,11.08
2023-11-06T09:39:33.142Z,11.06
2023-11-06T09:42:00.447Z,11.00
2023-11-06T09:44:29.750Z,11.00
2023-11-06T09:46:57.880Z,11.01
2023-11-06T09:49:31.810Z,11.03
2023-11-06T09:52:04.668Z,11.02
2023-11-06T09:54:32.352Z,11.00
2023-11-06T09:57:01.231Z,10.91
2023-11-06T09:59:29.125Z,10.92
2023-11-06T10:01:56.699Z,11.04
2023-11-06T10:04:24.420Z,11.12
2023-11-06T10:06:52.696Z,11.15
2023-11-06T10:09:26.981Z,11.00
2023-11-06T10:12:00.171Z,10.95
2023-11-06T10:14:40.759Z,10.93
2023-11-06T10:17:08.550Z,10.92
2023-11-06T10:19:36.569Z,11.00
2023-11-06T10:22:16.695Z,11.06
2023-11-06T10:24:51.203Z,11.11
2023-11-06T10:27:31.065Z,11.09
2023-11-06T10:30:06.797Z,11.18
2023-11-06T10:32:36.094Z,11.17
2023-11-06T10:35:16.198Z,11.01
2023-11-06T10:37:46.312Z,10.92
2023-11-06T10:40:16.043Z,10.87
2023-11-06T10:42:45.414Z,10.89
2023-11-06T10:45:16.389Z,11.06
2023-11-06T10:47:48.620Z,11.10
2023-11-06T10:50:21.296Z,10.77
2023-11-06T10:52:56.510Z,11.00
2023-11-06T10:55:31.484Z,10.94
2023-11-06T10:58:02.424Z,11.00
2023-11-06T11:00:33.166Z,10.90
2023-11-06T11:03:02.371Z,11.06
2023-11-06T11:05:36.275Z,11.06
2023-11-06T11:08:05.765Z,10.69
2023-11-06T11:10:33.506Z,10.93
2023-11-06T11:13:04.473Z,10.90
2023-11-06T11:15:34.398Z,10.88
2023-11-06T11:18:09.047Z,10.77
2023-11-06T11:20:54.388Z,10.82
2023-11-06T11:23:48.467Z,10.85
2023-11-06T11:26:16.374Z,10.83
2023-11-06T11:29:01.531Z,10.89
2023-11-06T11:31:41.665Z,10.68
2023-11-06T11:34:10.556Z,11.10
2023-11-06T11:36:41.856Z,10.79
2023-11-06T11:39:18.303Z,11.01
2023-11-06T11:42:00.568Z,10.80
2023-11-06T11:44:28.951Z,10.86
2023-11-06T11:46:58.841Z,10.88
2023-11-06T11:49:42.610Z,10.79
2023-11-06T11:52:14.977Z,10.62
2023-11-06T11:54:42.956Z,10.73
